sensor_id;sensor_type;location;lat;lon;timestamp;temperature;humidity
54431;DHT22;40342;52.998;5.862;2023-12-20T00:00:05;5.70;99.90
54431;DHT22;40342;52.998;5.862;2023-12-20T00:02:31;5.80;99.90
54431;DHT22;40342;52.998;5.862;2023-12-20T00:04:57;5.70;99.90
54431;DHT22;40342;52.998;5.862;2023-12-20T00:07:22;5.70;99.90
54431;DHT22;40342;52.998;5.862;2023-12-20T00:09:48;5.60;99.90
54431;DHT22;40342;52.998;5.862;2023-12-20T00:12:13;5.50;99.90
54431;DHT22;40342;52.998;5.862;2023-12-20T00:14:39;5.50;99.90
54431;DHT22;40342;52.998;5.862;2023-12-20T00:17:05;5.50;99.90
54431;DHT22;40342;52.998;5.862;2023-12-20T00:19:30;5.40;99.90
54431;DHT22;40342;52.998;5.862;2023-12-20T00:21:56;5.40;99.90
54431;DHT22;40342;52.998;5.862;2023-12-20T00:24:21;5.40;99.90
54431;DHT22;40342;52.998;5.862;2023-12-20T00:26:47;5.40;99.90
54431;DHT22;40342;52.998;5.862;2023-12-20T00:29:12;5.40;99.90
54431;DHT22;40342;52.998;5.862;2023-12-20T00:31:38;5.40;99.90
54431;DHT22;40342;52.998;5.862;2023-12-20T00:34:04;5.40;99.90
54431;DHT22;40342;52.998;5.862;2023-12-20T00:36:29;5.50;99.90
54431;DHT22;40342;52.998;5.862;2023-12-20T00:38:55;5.50;99.90
54431;DHT22;40342;52.998;5.862;2023-12-20T00:41:20;5.50;99.90
54431;DHT22;40342;52.998;5.862;2023-12-20T00:43:46;5.50;99.90
54431;DHT22;40342;52.998;5.862;2023-12-20T00:46:12;5.60;99.90
54431;DHT22;40342;52.998;5.862;2023-12-20T00:48:37;5.50;99.90
54431;DHT22;40342;52.998;5.862;2023-12-20T00:51:03;5.60;99.90
54431;DHT22;40342;52.998;5.862;2023-12-20T00:53:29;5.50;99.90
54431;DHT22;40342;52.998;5.862;2023-12-20T00:55:54;5.60;99.90
54431;DHT22;40342;52.998;5.862;2023-12-20T00:58:20;5.60;99.90
54431;DHT22;40342;52.998;5.862;2023-12-20T01:00:46;5.70;99.90
54431;DHT22;40342;52.998;5.862;2023-12-20T01:03:12;5.70;99.90
54431;DHT22;40342;52.998;5.862;2023-12-20T01:05:37;5.70;99.90
54431;DHT22;40342;52.998;5.862;2023-12-20T01:08:03;5.70;99.90
54431;DHT22;40342;52.998;5.862;2023-12-20T01:10:29;5.70;99.90
54431;DHT22;40342;52.998;5.862;2023-12-20T01:12:55;5.70;99.90
54431;DHT22;40342;52.998;5.862;2023-12-20T01:15:20;5.70;99.90
54431;DHT22;40342;52.998;5.862;2023-12-20T01:17:46;5.70;99.90
54431;DHT22;40342;52.998;5.862;2023-12-20T01:20:13;5.70;99.90
54431;DHT22;40342;52.998;5.862;2023-12-20T01:22:38;5.80;99.90
54431;DHT22;40342;52.998;5.862;2023-12-20T01:25:04;5.80;99.90
54431;DHT22;40342;52.998;5.862;2023-12-20T01:27:30;5.90;99.90
54431;DHT22;40342;52.998;5.862;2023-12-20T01:29:56;5.90;99.90
54431;DHT22;40342;52.998;5.862;2023-12-20T01:32:22;6.00;99.90
54431;DHT22;40342;52.998;5.862;2023-12-20T01:34:48;6.00;99.90
54431;DHT22;40342;52.998;5.862;2023-12-20T01:37:14;6.10;99.90
54431;DHT22;40342;52.998;5.862;2023-12-20T01:39:39;6.10;99.90
54431;DHT22;40342;52.998;5.862;2023-12-20T01:42:05;6.10;99.90
54431;DHT22;40342;52.998;5.862;2023-12-20T01:44:30;6.20;99.90
54431;DHT22;40342;52.998;5.862;2023-12-20T01:46:56;6.20;99.90
54431;DHT22;40342;52.998;5.862;2023-12-20T01:49:22;6.10;99.90
54431;DHT22;40342;52.998;5.862;2023-12-20T01:51:49;6.20;99.90
54431;DHT22;40342;52.998;5.862;2023-12-20T01:54:15;6.20;99.90
54431;DHT22;40342;52.998;5.862;2023-12-20T01:56:42;6.20;99.90
54431;DHT22;40342;52.998;5.862;2023-12-20T01:59:08;6.20;99.90
54431;DHT22;40342;52.998;5.862;2023-12-20T02:01:35;6.20;99.90
54431;DHT22;40342;52.998;5.862;2023-12-20T02:04:02;6.30;99.90
54431;DHT22;40342;52.998;5.862;2023-12-20T02:06:30;6.30;99.90
54431;DHT22;40342;52.998;5.862;2023-12-20T02:08:57;6.30;99.90
54431;DHT22;40342;52.998;5.862;2023-12-20T02:11:24;6.40;99.90
54431;DHT22;40342;52.998;5.862;2023-12-20T02:13:50;6.40;99.90
54431;DHT22;40342;52.998;5.862;2023-12-20T02:16:16;6.40;99.90
54431;DHT22;40342;52.998;5.862;2023-12-20T02:18:43;6.40;99.90
54431;DHT22;40342;52.998;5.862;2023-12-20T02:21:09;6.40;99.90
54431;DHT22;40342;52.998;5.862;2023-12-20T02:23:35;6.40;99.90
54431;DHT22;40342;52.998;5.862;2023-12-20T02:26:01;6.50;99.90
54431;DHT22;40342;52.998;5.862;2023-12-20T02:28:26;6.50;99.90
54431;DHT22;40342;52.998;5.862;2023-12-20T02:30:53;6.50;99.90
54431;DHT22;40342;52.998;5.862;2023-12-20T02:33:18;6.50;99.90
54431;DHT22;40342;52.998;5.862;2023-12-20T02:35:44;6.50;99.90
54431;DHT22;40342;52.998;5.862;2023-12-20T02:38:09;6.50;99.90
54431;DHT22;40342;52.998;5.862;2023-12-20T02:40:35;6.50;99.90
54431;DHT22;40342;52.998;5.862;2023-12-20T02:43:01;6.40;99.90
54431;DHT22;40342;52.998;5.862;2023-12-20T02:45:27;6.50;99.90
54431;DHT22;40342;52.998;5.862;2023-12-20T02:47:52;6.40;99.90
54431;DHT22;40342;52.998;5.862;2023-12-20T02:50:18;6.50;99.90
54431;DHT22;40342;52.998;5.862;2023-12-20T02:52:45;6.40;99.90
54431;DHT22;40342;52.998;5.862;2023-12-20T02:55:11;6.40;99.90
54431;DHT22;40342;52.998;5.862;2023-12-20T02:57:36;6.40;99.90
54431;DHT22;40342;52.998;5.862;2023-12-20T03:00:10;6.40;99.90
54431;DHT22;40342;52.998;5.862;2023-12-20T03:02:36;6.40;99.90
54431;DHT22;40342;52.998;5.862;2023-12-20T03:05:02;6.40;99.90
54431;DHT22;40342;52.998;5.862;2023-12-20T03:07:28;6.40;99.90
54431;DHT22;40342;52.998;5.862;2023-12-20T03:09:54;6.30;99.90
54431;DHT22;40342;52.998;5.862;2023-12-20T03:12:20;6.30;99.90
54431;DHT22;40342;52.998;5.862;2023-12-20T03:14:45;6.30;99.90
54431;DHT22;40342;52.998;5.862;2023-12-20T03:17:11;6.40;99.90
54431;DHT22;40342;52.998;5.862;2023-12-20T03:19:36;6.40;99.90
54431;DHT22;40342;52.998;5.862;2023-12-20T03:22:02;6.40;99.90
54431;DHT22;40342;52.998;5.862;2023-12-20T03:24:28;6.40;99.90
54431;DHT22;40342;52.998;5.862;2023-12-20T03:26:53;6.40;99.90
54431;DHT22;40342;52.998;5.862;2023-12-20T03:29:19;6.40;99.90
54431;DHT22;40342;52.998;5.862;2023-12-20T03:31:45;6.40;99.90
54431;DHT22;40342;52.998;5.862;2023-12-20T03:34:11;6.40;99.90
54431;DHT22;40342;52.998;5.862;2023-12-20T03:36:37;6.40;99.90
54431;DHT22;40342;52.998;5.862;2023-12-20T03:39:03;6.40;99.90
54431;DHT22;40342;52.998;5.862;2023-12-20T03:41:28;6.40;99.90
54431;DHT22;40342;52.998;5.862;2023-12-20T03:43:54;6.30;99.90
54431;DHT22;40342;52.998;5.862;2023-12-20T03:46:19;6.30;99.90
54431;DHT22;40342;52.998;5.862;2023-12-20T03:48:45;6.30;99.90
54431;DHT22;40342;52.998;5.862;2023-12-20T03:51:11;6.30;99.90
54431;DHT22;40342;52.998;5.862;2023-12-20T03:53:36;6.30;99.90
54431;DHT22;40342;52.998;5.862;2023-12-20T03:56:02;6.40;99.90
54431;DHT22;40342;52.998;5.862;2023-12-20T03:58:29;6.40;99.90
54431;DHT22;40342;52.998;5.862;2023-12-20T04:00:54;6.40;99.90
54431;DHT22;40342;52.998;5.862;2023-12-20T04:03:20;6.40;99.90
54431;DHT22;40342;52.998;5.862;2023-12-20T04:05:45;6.40;99.90
54431;DHT22;40342;52.998;5.862;2023-12-20T04:08:11;6.50;99.90
54431;DHT22;40342;52.998;5.862;2023-12-20T04:10:37;6.50;99.90
54431;DHT22;40342;52.998;5.862;2023-12-20T04:13:03;6.60;99.90
54431;DHT22;40342;52.998;5.862;2023-12-20T04:15:29;6.60;99.90
54431;DHT22;40342;52.998;5.862;2023-12-20T04:17:54;6.60;99.90
54431;DHT22;40342;52.998;5.862;2023-12-20T04:20:20;6.60;99.90
54431;DHT22;40342;52.998;5.862;2023-12-20T04:22:45;6.60;99.90
54431;DHT22;40342;52.998;5.862;2023-12-20T04:25:11;6.60;99.90
54431;DHT22;40342;52.998;5.862;2023-12-20T04:27:37;6.60;99.90
54431;DHT22;40342;52.998;5.862;2023-12-20T04:30:03;6.60;99.90
54431;DHT22;40342;52.998;5.862;2023-12-20T04:32:29;6.60;99.90
54431;DHT22;40342;52.998;5.862;2023-12-20T04:34:54;6.70;99.90
54431;DHT22;40342;52.998;5.862;2023-12-20T04:37:20;6.70;99.90
54431;DHT22;40342;52.998;5.862;2023-12-20T04:39:46;6.80;99.90
54431;DHT22;40342;52.998;5.862;2023-12-20T04:42:11;6.80;99.90
54431;DHT22;40342;52.998;5.862;2023-12-20T04:44:37;6.70;99.90
54431;DHT22;40342;52.998;5.862;2023-12-20T04:47:03;6.70;99.90
54431;DHT22;40342;52.998;5.862;2023-12-20T04:49:28;6.80;99.90
54431;DHT22;40342;52.998;5.862;2023-12-20T04:51:54;6.70;99.90
54431;DHT22;40342;52.998;5.862;2023-12-20T04:54:21;6.80;99.90
54431;DHT22;40342;52.998;5.862;2023-12-20T04:56:46;6.80;99.90
54431;DHT22;40342;52.998;5.862;2023-12-20T04:59:12;6.80;99.90
54431;DHT22;40342;52.998;5.862;2023-12-20T05:01:38;6.80;99.90
54431;DHT22;40342;52.998;5.862;2023-12-20T05:04:04;6.80;99.90
54431;DHT22;40342;52.998;5.862;2023-12-20T05:06:30;6.80;99.90
54431;DHT22;40342;52.998;5.862;2023-12-20T05:08:55;6.80;99.90
54431;DHT22;40342;52.998;5.862;2023-12-20T05:11:21;6.90;99.90
54431;DHT22;40342;52.998;5.862;2023-12-20T05:13:47;6.90;99.90
54431;DHT22;40342;52.998;5.862;2023-12-20T05:16:12;6.90;99.90
54431;DHT22;40342;52.998;5.862;2023-12-20T05:18:40;6.90;99.90
54431;DHT22;40342;52.998;5.862;2023-12-20T05:21:05;6.90;99.90
54431;DHT22;40342;52.998;5.862;2023-12-20T05:23:32;6.90;99.90
54431;DHT22;40342;52.998;5.862;2023-12-20T05:25:57;6.90;99.90
54431;DHT22;40342;52.998;5.862;2023-12-20T05:28:24;7.00;99.90
54431;DHT22;40342;52.998;5.862;2023-12-20T05:30:50;7.00;99.90
54431;DHT22;40342;52.998;5.862;2023-12-20T05:33:15;7.00;99.90
54431;DHT22;40342;52.998;5.862;2023-12-20T05:35:41;7.00;99.90
54431;DHT22;40342;52.998;5.862;2023-12-20T05:38:07;7.00;99.90
54431;DHT22;40342;52.998;5.862;2023-12-20T05:40:32;7.00;99.90
54431;DHT22;40342;52.998;5.862;2023-12-20T05:42:58;7.00;99.90
54431;DHT22;40342;52.998;5.862;2023-12-20T05:45:23;7.10;99.90
54431;DHT22;40342;52.998;5.862;2023-12-20T05:47:49;7.00;99.90
54431;DHT22;40342;52.998;5.862;2023-12-20T05:50:15;7.00;99.90
54431;DHT22;40342;52.998;5.862;2023-12-20T05:52:40;7.10;99.90
54431;DHT22;40342;52.998;5.862;2023-12-20T05:55:06;7.10;99.90
54431;DHT22;40342;52.998;5.862;2023-12-20T05:57:32;7.10;99.90
54431;DHT22;40342;52.998;5.862;2023-12-20T05:59:58;7.10;99.90
54431;DHT22;40342;52.998;5.862;2023-12-20T06:02:23;7.10;99.90
54431;DHT22;40342;52.998;5.862;2023-12-20T06:04:49;7.10;99.90
54431;DHT22;40342;52.998;5.862;2023-12-20T06:07:16;7.10;99.90
54431;DHT22;40342;52.998;5.862;2023-12-20T06:09:41;7.10;99.90
54431;DHT22;40342;52.998;5.862;2023-12-20T06:12:08;7.10;99.90
54431;DHT22;40342;52.998;5.862;2023-12-20T06:14:36;7.10;99.90
54431;DHT22;40342;52.998;5.862;2023-12-20T06:17:02;7.20;99.90
54431;DHT22;40342;52.998;5.862;2023-12-20T06:19:28;7.20;99.90
54431;DHT22;40342;52.998;5.862;2023-12-20T06:21:54;7.20;99.90
54431;DHT22;40342;52.998;5.862;2023-12-20T06:24:19;7.20;99.90
54431;DHT22;40342;52.998;5.862;2023-12-20T06:26:45;7.20;99.90
54431;DHT22;40342;52.998;5.862;2023-12-20T06:29:11;7.20;99.90
54431;DHT22;40342;52.998;5.862;2023-12-20T06:31:37;7.20;99.90
54431;DHT22;40342;52.998;5.862;2023-12-20T06:34:02;7.20;99.90
54431;DHT22;40342;52.998;5.862;2023-12-20T06:36:28;7.20;99.90
54431;DHT22;40342;52.998;5.862;2023-12-20T06:38:54;7.20;99.90
54431;DHT22;40342;52.998;5.862;2023-12-20T06:41:19;7.20;99.90
54431;DHT22;40342;52.998;5.862;2023-12-20T06:43:45;7.20;99.90
54431;DHT22;40342;52.998;5.862;2023-12-20T06:46:11;7.20;99.90
54431;DHT22;40342;52.998;5.862;2023-12-20T06:48:38;7.30;99.90
54431;DHT22;40342;52.998;5.862;2023-12-20T06:51:05;7.20;99.90
54431;DHT22;40342;52.998;5.862;2023-12-20T06:53:30;7.20;99.90
54431;DHT22;40342;52.998;5.862;2023-12-20T06:55:56;7.20;99.90
54431;DHT22;40342;52.998;5.862;2023-12-20T06:58:22;7.20;99.90
54431;DHT22;40342;52.998;5.862;2023-12-20T07:00:48;7.20;99.90
54431;DHT22;40342;52.998;5.862;2023-12-20T07:03:14;7.20;99.90
54431;DHT22;40342;52.998;5.862;2023-12-20T07:05:40;7.20;99.90
54431;DHT22;40342;52.998;5.862;2023-12-20T07:08:06;7.30;99.90
54431;DHT22;40342;52.998;5.862;2023-12-20T07:10:32;7.30;99.90
54431;DHT22;40342;52.998;5.862;2023-12-20T07:12:57;7.30;99.90
54431;DHT22;40342;52.998;5.862;2023-12-20T07:15:23;7.30;99.90
54431;DHT22;40342;52.998;5.862;2023-12-20T07:17:48;7.30;99.90
54431;DHT22;40342;52.998;5.862;2023-12-20T07:20:15;7.30;99.90
54431;DHT22;40342;52.998;5.862;2023-12-20T07:22:40;7.30;99.90
54431;DHT22;40342;52.998;5.862;2023-12-20T07:25:07;7.30;99.90
54431;DHT22;40342;52.998;5.862;2023-12-20T07:27:32;7.30;99.90
54431;DHT22;40342;52.998;5.862;2023-12-20T07:29:58;7.30;99.90
54431;DHT22;40342;52.998;5.862;2023-12-20T07:32:24;7.40;99.90
54431;DHT22;40342;52.998;5.862;2023-12-20T07:34:49;7.40;99.90
54431;DHT22;40342;52.998;5.862;2023-12-20T07:37:15;7.30;99.90
54431;DHT22;40342;52.998;5.862;2023-12-20T07:39:41;7.40;99.90
54431;DHT22;40342;52.998;5.862;2023-12-20T07:42:07;7.40;99.90
54431;DHT22;40342;52.998;5.862;2023-12-20T07:44:33;7.40;99.90
54431;DHT22;40342;52.998;5.862;2023-12-20T07:46:59;7.40;99.90
54431;DHT22;40342;52.998;5.862;2023-12-20T07:49:24;7.40;99.90
54431;DHT22;40342;52.998;5.862;2023-12-20T07:51:50;7.40;99.90
54431;DHT22;40342;52.998;5.862;2023-12-20T07:54:16;7.40;99.90
54431;DHT22;40342;52.998;5.862;2023-12-20T07:56:42;7.40;99.90
54431;DHT22;40342;52.998;5.862;2023-12-20T07:59:07;7.50;99.90
54431;DHT22;40342;52.998;5.862;2023-12-20T08:01:33;7.40;99.90
54431;DHT22;40342;52.998;5.862;2023-12-20T08:03:58;7.40;99.90
54431;DHT22;40342;52.998;5.862;2023-12-20T08:06:24;7.40;99.90
54431;DHT22;40342;52.998;5.862;2023-12-20T08:08:50;7.40;99.90
54431;DHT22;40342;52.998;5.862;2023-12-20T08:11:15;7.40;99.90
54431;DHT22;40342;52.998;5.862;2023-12-20T08:13:41;7.40;99.90
54431;DHT22;40342;52.998;5.862;2023-12-20T08:16:07;7.40;99.90
54431;DHT22;40342;52.998;5.862;2023-12-20T08:18:32;7.50;99.90
54431;DHT22;40342;52.998;5.862;2023-12-20T08:20:59;7.40;99.90
54431;DHT22;40342;52.998;5.862;2023-12-20T08:23:25;7.40;99.90
54431;DHT22;40342;52.998;5.862;2023-12-20T08:25:51;7.40;99.90
54431;DHT22;40342;52.998;5.862;2023-12-20T08:28:16;7.40;99.90
54431;DHT22;40342;52.998;5.862;2023-12-20T08:30:42;7.40;99.90
54431;DHT22;40342;52.998;5.862;2023-12-20T08:33:07;7.30;99.90
54431;DHT22;40342;52.998;5.862;2023-12-20T08:35:40;7.30;99.90
54431;DHT22;40342;52.998;5.862;2023-12-20T08:38:06;7.30;99.90
54431;DHT22;40342;52.998;5.862;2023-12-20T08:40:32;7.30;99.90
54431;DHT22;40342;52.998;5.862;2023-12-20T08:42:58;7.40;99.90
54431;DHT22;40342;52.998;5.862;2023-12-20T08:45:23;7.30;99.90
54431;DHT22;40342;52.998;5.862;2023-12-20T08:47:50;7.40;99.90
54431;DHT22;40342;52.998;5.862;2023-12-20T08:50:15;7.30;99.90
54431;DHT22;40342;52.998;5.862;2023-12-20T08:52:41;7.30;99.90
54431;DHT22;40342;52.998;5.862;2023-12-20T08:55:08;7.40;99.90
54431;DHT22;40342;52.998;5.862;2023-12-20T08:57:34;7.40;99.90
54431;DHT22;40342;52.998;5.862;2023-12-20T08:59:59;7.50;99.90
54431;DHT22;40342;52.998;5.862;2023-12-20T09:02:25;7.50;99.90
54431;DHT22;40342;52.998;5.862;2023-12-20T09:04:51;7.60;99.90
54431;DHT22;40342;52.998;5.862;2023-12-20T09:07:26;7.60;99.90
54431;DHT22;40342;52.998;5.862;2023-12-20T09:09:53;7.70;99.90
54431;DHT22;40342;52.998;5.862;2023-12-20T09:12:19;7.70;99.90
54431;DHT22;40342;52.998;5.862;2023-12-20T09:14:49;7.60;99.90
54431;DHT22;40342;52.998;5.862;2023-12-20T09:17:16;7.60;99.90
54431;DHT22;40342;52.998;5.862;2023-12-20T09:19:45;7.70;99.90
54431;DHT22;40342;52.998;5.862;2023-12-20T09:22:11;7.70;99.90
54431;DHT22;40342;52.998;5.862;2023-12-20T09:24:37;7.70;99.90
54431;DHT22;40342;52.998;5.862;2023-12-20T09:27:04;7.60;99.90
54431;DHT22;40342;52.998;5.862;2023-12-20T09:29:31;7.50;99.90
54431;DHT22;40342;52.998;5.862;2023-12-20T09:31:56;7.40;99.90
54431;DHT22;40342;52.998;5.862;2023-12-20T09:34:23;7.30;99.90
54431;DHT22;40342;52.998;5.862;2023-12-20T09:36:48;7.20;99.90
54431;DHT22;40342;52.998;5.862;2023-12-20T09:39:15;7.20;99.90
54431;DHT22;40342;52.998;5.862;2023-12-20T09:41:45;7.10;99.90
54431;DHT22;40342;52.998;5.862;2023-12-20T09:44:15;7.00;99.90
54431;DHT22;40342;52.998;5.862;2023-12-20T09:46:44;6.90;99.90
54431;DHT22;40342;52.998;5.862;2023-12-20T09:49:12;6.90;99.90
54431;DHT22;40342;52.998;5.862;2023-12-20T09:51:38;6.90;99.90
54431;DHT22;40342;52.998;5.862;2023-12-20T09:54:05;6.90;99.90
54431;DHT22;40342;52.998;5.862;2023-12-20T09:56:31;6.80;99.90
54431;DHT22;40342;52.998;5.862;2023-12-20T09:58:56;6.80;99.90
54431;DHT22;40342;52.998;5.862;2023-12-20T10:01:26;6.80;99.90
54431;DHT22;40342;52.998;5.862;2023-12-20T10:03:54;6.70;99.90
54431;DHT22;40342;52.998;5.862;2023-12-20T10:06:21;6.60;99.90
54431;DHT22;40342;52.998;5.862;2023-12-20T10:08:47;6.60;99.90
54431;DHT22;40342;52.998;5.862;2023-12-20T10:11:12;6.60;99.90
54431;DHT22;40342;52.998;5.862;2023-12-20T10:13:40;6.60;99.90
54431;DHT22;40342;52.998;5.862;2023-12-20T10:16:07;6.60;99.90
54431;DHT22;40342;52.998;5.862;2023-12-20T10:18:35;6.60;99.90
54431;DHT22;40342;52.998;5.862;2023-12-20T10:21:01;6.60;99.90
54431;DHT22;40342;52.998;5.862;2023-12-20T10:23:28;6.60;99.90
54431;DHT22;40342;52.998;5.862;2023-12-20T10:25:58;6.60;99.90
54431;DHT22;40342;52.998;5.862;2023-12-20T10:28:24;6.60;99.90
54431;DHT22;40342;52.998;5.862;2023-12-20T10:30:53;6.60;99.90
54431;DHT22;40342;52.998;5.862;2023-12-20T10:33:27;6.60;99.90
54431;DHT22;40342;52.998;5.862;2023-12-20T10:35:54;6.60;99.90
54431;DHT22;40342;52.998;5.862;2023-12-20T10:38:20;6.60;99.90
54431;DHT22;40342;52.998;5.862;2023-12-20T10:40:46;6.60;99.90
54431;DHT22;40342;52.998;5.862;2023-12-20T10:43:12;6.60;99.90
54431;DHT22;40342;52.998;5.862;2023-12-20T10:45:38;6.60;99.90
54431;DHT22;40342;52.998;5.862;2023-12-20T10:48:04;6.60;99.90
54431;DHT22;40342;52.998;5.862;2023-12-20T10:50:31;6.60;99.90
54431;DHT22;40342;52.998;5.862;2023-12-20T10:52:58;6.60;99.90
54431;DHT22;40342;52.998;5.862;2023-12-20T10:55:24;6.60;99.90
54431;DHT22;40342;52.998;5.862;2023-12-20T10:58:01;6.60;99.90
54431;DHT22;40342;52.998;5.862;2023-12-20T11:00:29;6.60;99.90
54431;DHT22;40342;52.998;5.862;2023-12-20T11:03:01;6.60;99.90
54431;DHT22;40342;52.998;5.862;2023-12-20T11:08:51;6.60;99.90
54431;DHT22;40342;52.998;5.862;2023-12-20T11:11:32;6.70;99.90
54431;DHT22;40342;52.998;5.862;2023-12-20T11:14:05;6.70;99.90
54431;DHT22;40342;52.998;5.862;2023-12-20T11:16:37;6.70;99.90
54431;DHT22;40342;52.998;5.862;2023-12-20T11:19:05;6.70;99.90
54431;DHT22;40342;52.998;5.862;2023-12-20T11:21:31;6.70;99.90
54431;DHT22;40342;52.998;5.862;2023-12-20T11:23:57;6.80;99.90
54431;DHT22;40342;52.998;5.862;2023-12-20T11:26:27;6.70;99.90
54431;DHT22;40342;52.998;5.862;2023-12-20T11:28:54;6.70;99.90
54431;DHT22;40342;52.998;5.862;2023-12-20T11:31:19;6.80;99.90
54431;DHT22;40342;52.998;5.862;2023-12-20T11:33:46;6.80;99.90
54431;DHT22;40342;52.998;5.862;2023-12-20T11:36:15;6.80;99.90
54431;DHT22;40342;52.998;5.862;2023-12-20T11:38:57;6.80;99.90
54431;DHT22;40342;52.998;5.862;2023-12-20T11:41:26;6.80;99.90
54431;DHT22;40342;52.998;5.862;2023-12-20T11:43:55;6.90;99.90
54431;DHT22;40342;52.998;5.862;2023-12-20T11:46:22;6.90;99.90
54431;DHT22;40342;52.998;5.862;2023-12-20T11:48:48;6.90;99.90
54431;DHT22;40342;52.998;5.862;2023-12-20T11:51:14;6.90;99.90
54431;DHT22;40342;52.998;5.862;2023-12-20T11:53:40;6.90;99.90
54431;DHT22;40342;52.998;5.862;2023-12-20T11:56:08;6.90;99.90
54431;DHT22;40342;52.998;5.862;2023-12-20T11:58:34;6.90;99.90
54431;DHT22;40342;52.998;5.862;2023-12-20T12:01:00;6.90;99.90
54431;DHT22;40342;52.998;5.862;2023-12-20T12:03:27;6.90;99.90
54431;DHT22;40342;52.998;5.862;2023-12-20T12:05:53;6.80;99.90
54431;DHT22;40342;52.998;5.862;2023-12-20T12:08:19;6.80;99.90
54431;DHT22;40342;52.998;5.862;2023-12-20T12:10:45;6.70;99.90
54431;DHT22;40342;52.998;5.862;2023-12-20T12:13:10;6.70;99.90
54431;DHT22;40342;52.998;5.862;2023-12-20T12:15:37;6.70;99.90
54431;DHT22;40342;52.998;5.862;2023-12-20T12:18:03;6.70;99.90
54431;DHT22;40342;52.998;5.862;2023-12-20T12:20:29;6.70;99.90
54431;DHT22;40342;52.998;5.862;2023-12-20T12:23:04;6.70;99.90
54431;DHT22;40342;52.998;5.862;2023-12-20T12:25:30;6.70;99.90
54431;DHT22;40342;52.998;5.862;2023-12-20T12:27:58;6.70;99.90
54431;DHT22;40342;52.998;5.862;2023-12-20T12:30:23;6.70;99.90
54431;DHT22;40342;52.998;5.862;2023-12-20T12:32:51;6.60;99.90
54431;DHT22;40342;52.998;5.862;2023-12-20T12:35:17;6.60;99.90
54431;DHT22;40342;52.998;5.862;2023-12-20T12:37:43;6.60;99.90
54431;DHT22;40342;52.998;5.862;2023-12-20T12:40:13;6.60;99.90
54431;DHT22;40342;52.998;5.862;2023-12-20T12:42:40;6.60;99.90
54431;DHT22;40342;52.998;5.862;2023-12-20T12:45:07;6.50;99.90
54431;DHT22;40342;52.998;5.862;2023-12-20T12:47:33;6.50;99.90
54431;DHT22;40342;52.998;5.862;2023-12-20T12:49:59;6.50;99.90
54431;DHT22;40342;52.998;5.862;2023-12-20T12:52:25;6.50;99.90
54431;DHT22;40342;52.998;5.862;2023-12-20T12:54:52;6.50;99.90
54431;DHT22;40342;52.998;5.862;2023-12-20T12:57:18;6.50;99.90
54431;DHT22;40342;52.998;5.862;2023-12-20T12:59:44;6.40;99.90
54431;DHT22;40342;52.998;5.862;2023-12-20T13:02:12;6.50;99.90
54431;DHT22;40342;52.998;5.862;2023-12-20T13:04:41;6.40;99.90
54431;DHT22;40342;52.998;5.862;2023-12-20T13:07:08;6.40;99.90
54431;DHT22;40342;52.998;5.862;2023-12-20T13:09:36;6.40;99.90
54431;DHT22;40342;52.998;5.862;2023-12-20T13:12:02;6.40;99.90
54431;DHT22;40342;52.998;5.862;2023-12-20T13:14:31;6.40;99.90
54431;DHT22;40342;52.998;5.862;2023-12-20T13:16:58;6.40;99.90
54431;DHT22;40342;52.998;5.862;2023-12-20T13:19:24;6.40;99.90
54431;DHT22;40342;52.998;5.862;2023-12-20T13:21:49;6.30;99.90
54431;DHT22;40342;52.998;5.862;2023-12-20T13:24:15;6.30;99.90
54431;DHT22;40342;52.998;5.862;2023-12-20T13:26:40;6.30;99.90
54431;DHT22;40342;52.998;5.862;2023-12-20T13:29:06;6.30;99.90
54431;DHT22;40342;52.998;5.862;2023-12-20T13:31:32;6.30;99.90
54431;DHT22;40342;52.998;5.862;2023-12-20T13:33:57;6.30;99.90
54431;DHT22;40342;52.998;5.862;2023-12-20T13:36:23;6.30;99.90
54431;DHT22;40342;52.998;5.862;2023-12-20T13:38:48;6.30;99.90
54431;DHT22;40342;52.998;5.862;2023-12-20T13:41:14;6.30;99.90
54431;DHT22;40342;52.998;5.862;2023-12-20T13:43:40;6.30;99.90
54431;DHT22;40342;52.998;5.862;2023-12-20T13:46:05;6.30;99.90
54431;DHT22;40342;52.998;5.862;2023-12-20T13:48:31;6.30;99.90
54431;DHT22;40342;52.998;5.862;2023-12-20T13:50:56;6.40;99.90
54431;DHT22;40342;52.998;5.862;2023-12-20T13:53:22;6.40;99.90
54431;DHT22;40342;52.998;5.862;2023-12-20T13:55:48;6.40;99.90
54431;DHT22;40342;52.998;5.862;2023-12-20T13:58:13;6.50;99.90
54431;DHT22;40342;52.998;5.862;2023-12-20T14:00:40;6.50;99.90
54431;DHT22;40342;52.998;5.862;2023-12-20T14:03:05;6.50;99.90
54431;DHT22;40342;52.998;5.862;2023-12-20T14:05:31;6.50;99.90
54431;DHT22;40342;52.998;5.862;2023-12-20T14:07:57;6.50;99.90
54431;DHT22;40342;52.998;5.862;2023-12-20T14:10:23;6.50;99.90
54431;DHT22;40342;52.998;5.862;2023-12-20T14:12:50;6.50;99.90
54431;DHT22;40342;52.998;5.862;2023-12-20T14:15:16;6.50;99.90
54431;DHT22;40342;52.998;5.862;2023-12-20T14:17:42;6.50;99.90
54431;DHT22;40342;52.998;5.862;2023-12-20T14:20:08;6.50;99.90
54431;DHT22;40342;52.998;5.862;2023-12-20T14:22:34;6.50;99.90
54431;DHT22;40342;52.998;5.862;2023-12-20T14:25:00;6.50;99.90
54431;DHT22;40342;52.998;5.862;2023-12-20T14:27:26;6.50;99.90
54431;DHT22;40342;52.998;5.862;2023-12-20T14:29:54;6.60;99.90
54431;DHT22;40342;52.998;5.862;2023-12-20T14:32:19;6.60;99.90
54431;DHT22;40342;52.998;5.862;2023-12-20T14:34:45;6.70;99.90
54431;DHT22;40342;52.998;5.862;2023-12-20T14:37:11;6.80;99.90
54431;DHT22;40342;52.998;5.862;2023-12-20T14:39:37;6.80;99.90
54431;DHT22;40342;52.998;5.862;2023-12-20T14:42:07;6.90;99.90
54431;DHT22;40342;52.998;5.862;2023-12-20T14:44:36;6.90;99.90
54431;DHT22;40342;52.998;5.862;2023-12-20T14:47:02;6.90;99.90
54431;DHT22;40342;52.998;5.862;2023-12-20T14:49:28;6.90;99.90
54431;DHT22;40342;52.998;5.862;2023-12-20T14:51:54;6.90;99.90
54431;DHT22;40342;52.998;5.862;2023-12-20T14:54:19;7.00;99.90
54431;DHT22;40342;52.998;5.862;2023-12-20T14:56:46;7.00;99.90
54431;DHT22;40342;52.998;5.862;2023-12-20T14:59:12;7.00;99.90
54431;DHT22;40342;52.998;5.862;2023-12-20T15:01:38;7.00;99.90
54431;DHT22;40342;52.998;5.862;2023-12-20T15:04:06;7.10;99.90
54431;DHT22;40342;52.998;5.862;2023-12-20T15:06:32;7.10;99.90
54431;DHT22;40342;52.998;5.862;2023-12-20T15:08:59;7.10;99.90
54431;DHT22;40342;52.998;5.862;2023-12-20T15:11:25;7.10;99.90
54431;DHT22;40342;52.998;5.862;2023-12-20T15:13:51;7.10;99.90
54431;DHT22;40342;52.998;5.862;2023-12-20T15:16:22;7.20;99.90
54431;DHT22;40342;52.998;5.862;2023-12-20T15:18:48;7.20;99.90
54431;DHT22;40342;52.998;5.862;2023-12-20T15:21:14;7.20;99.90
54431;DHT22;40342;52.998;5.862;2023-12-20T15:23:40;7.20;99.90
54431;DHT22;40342;52.998;5.862;2023-12-20T15:26:09;7.30;99.90
54431;DHT22;40342;52.998;5.862;2023-12-20T15:28:34;7.30;99.90
54431;DHT22;40342;52.998;5.862;2023-12-20T15:31:00;7.30;99.90
54431;DHT22;40342;52.998;5.862;2023-12-20T15:33:26;7.30;99.90
54431;DHT22;40342;52.998;5.862;2023-12-20T15:35:51;7.20;99.90
54431;DHT22;40342;52.998;5.862;2023-12-20T15:38:17;7.30;99.90
54431;DHT22;40342;52.998;5.862;2023-12-20T15:40:42;7.20;99.90